KBOS/BOS METAR and TAF weather

Enter ICAO airport designator
Station Type Date Time Source
KBOS METAR 2019/10/18 06:54 UTC NOAA

KBOS 180654Z 26018G25KT 10SM BKN047 11/03 A2948 RMK AO2 PK WND 27026/0558 SLP981 T01110033


Station Type Date Time Source
KBOS Decoded METAR 2019/10/18 06:54 UTC NOAA

BOSTON LOGAN INTERNATIONAL, MA, United States (KBOS) 42-22N 071-01W 54M
Oct 18, 2019 - 02:54 AM EDT / 2019.10.18 0654 UTC
Wind: from the W (260 degrees) at 21 MPH (18 KT) gusting to 29 MPH (25 KT):0
Visibility: 10 mile(s):0
Sky conditions: mostly cloudy
Temperature: 52.0 F (11.1 C)
Dew Point: 37.9 F (3.3 C)
Relative Humidity: 58%
Pressure (altimeter): 29.48 in. Hg (998 hPa)
ob: KBOS 180654Z 26018G25KT 10SM BKN047 11/03 A2948 RMK AO2 PK WND 27026/0558 SLP981 T01110033
cycle: 7

Station Type Date Time Source
KBOS TAF 2019/10/18 06:36 UTC NOAA

TAF
AMD KBOS 180531Z 1806/1912 28013G23KT P6SM BKN040
FM181300 30011G24KT P6SM SCT040
FM182200 31011G22KT P6SM FEW045
FM190200 31009KT P6SM SKC

Example: see airport list